sensor_id;sensor_type;location;lat;lon;timestamp;temperature;humidity
59162;DHT22;44942;48.936;8.260;2023-07-31T00:01:50;25.60;51.00
59162;DHT22;44942;48.936;8.260;2023-07-31T00:06:50;25.60;51.10
59162;DHT22;44942;48.936;8.260;2023-07-31T00:11:51;25.60;51.00
59162;DHT22;44942;48.936;8.260;2023-07-31T00:16:51;25.60;51.10
59162;DHT22;44942;48.936;8.260;2023-07-31T00:21:52;25.60;51.10
59162;DHT22;44942;48.936;8.260;2023-07-31T00:26:52;25.50;51.00
59162;DHT22;44942;48.936;8.260;2023-07-31T00:31:53;25.50;51.10
59162;DHT22;44942;48.936;8.260;2023-07-31T00:36:53;25.50;51.10
59162;DHT22;44942;48.936;8.260;2023-07-31T00:41:54;25.50;51.10
59162;DHT22;44942;48.936;8.260;2023-07-31T00:46:54;25.50;51.00
59162;DHT22;44942;48.936;8.260;2023-07-31T00:51:59;25.50;51.10
59162;DHT22;44942;48.936;8.260;2023-07-31T00:57:00;25.50;51.00
59162;DHT22;44942;48.936;8.260;2023-07-31T01:02:01;25.50;51.00
59162;DHT22;44942;48.936;8.260;2023-07-31T01:12:03;25.50;51.00
59162;DHT22;44942;48.936;8.260;2023-07-31T01:17:04;25.50;51.00
59162;DHT22;44942;48.936;8.260;2023-07-31T01:27:06;25.40;50.80
59162;DHT22;44942;48.936;8.260;2023-07-31T01:32:10;25.50;50.90
59162;DHT22;44942;48.936;8.260;2023-07-31T01:37:11;25.40;50.80
59162;DHT22;44942;48.936;8.260;2023-07-31T01:42:11;25.40;50.80
59162;DHT22;44942;48.936;8.260;2023-07-31T01:47:12;25.40;50.90
59162;DHT22;44942;48.936;8.260;2023-07-31T01:52:12;25.40;50.70
59162;DHT22;44942;48.936;8.260;2023-07-31T01:57:13;25.40;50.70
59162;DHT22;44942;48.936;8.260;2023-07-31T02:02:13;25.40;50.70
59162;DHT22;44942;48.936;8.260;2023-07-31T02:07:14;25.40;50.70
59162;DHT22;44942;48.936;8.260;2023-07-31T02:12:14;25.40;50.70
59162;DHT22;44942;48.936;8.260;2023-07-31T02:17:15;25.40;50.60
59162;DHT22;44942;48.936;8.260;2023-07-31T02:22:15;25.30;50.60
59162;DHT22;44942;48.936;8.260;2023-07-31T02:27:16;25.40;51.00
59162;DHT22;44942;48.936;8.260;2023-07-31T02:32:16;25.40;50.70
59162;DHT22;44942;48.936;8.260;2023-07-31T02:37:16;25.30;50.80
59162;DHT22;44942;48.936;8.260;2023-07-31T02:42:17;25.30;50.60
59162;DHT22;44942;48.936;8.260;2023-07-31T02:47:18;25.30;50.40
59162;DHT22;44942;48.936;8.260;2023-07-31T02:52:18;25.30;50.50
59162;DHT22;44942;48.936;8.260;2023-07-31T02:57:19;25.30;50.40
59162;DHT22;44942;48.936;8.260;2023-07-31T03:02:20;25.30;50.40
59162;DHT22;44942;48.936;8.260;2023-07-31T03:07:20;25.30;50.40
59162;DHT22;44942;48.936;8.260;2023-07-31T03:12:21;25.30;50.30
59162;DHT22;44942;48.936;8.260;2023-07-31T03:17:21;25.30;50.30
59162;DHT22;44942;48.936;8.260;2023-07-31T03:22:22;25.30;50.30
59162;DHT22;44942;48.936;8.260;2023-07-31T03:27:23;25.30;50.30
59162;DHT22;44942;48.936;8.260;2023-07-31T03:32:23;25.30;50.20
59162;DHT22;44942;48.936;8.260;2023-07-31T03:37:27;25.30;50.20
59162;DHT22;44942;48.936;8.260;2023-07-31T03:42:27;25.30;50.10
59162;DHT22;44942;48.936;8.260;2023-07-31T03:47:28;25.30;50.10
59162;DHT22;44942;48.936;8.260;2023-07-31T03:52:28;25.30;50.00
59162;DHT22;44942;48.936;8.260;2023-07-31T03:57:28;25.20;50.00
59162;DHT22;44942;48.936;8.260;2023-07-31T04:02:29;25.30;50.10
59162;DHT22;44942;48.936;8.260;2023-07-31T04:07:29;25.30;50.10
59162;DHT22;44942;48.936;8.260;2023-07-31T04:12:30;25.30;50.10
59162;DHT22;44942;48.936;8.260;2023-07-31T04:17:30;25.20;49.90
59162;DHT22;44942;48.936;8.260;2023-07-31T04:22:31;25.20;49.90
59162;DHT22;44942;48.936;8.260;2023-07-31T04:27:31;25.20;49.90
59162;DHT22;44942;48.936;8.260;2023-07-31T04:32:32;25.20;49.90
59162;DHT22;44942;48.936;8.260;2023-07-31T04:37:32;25.20;49.90
59162;DHT22;44942;48.936;8.260;2023-07-31T04:42:33;25.20;49.90
59162;DHT22;44942;48.936;8.260;2023-07-31T04:47:34;25.20;49.90
59162;DHT22;44942;48.936;8.260;2023-07-31T04:52:35;25.20;50.00
59162;DHT22;44942;48.936;8.260;2023-07-31T04:57:35;25.20;49.90
59162;DHT22;44942;48.936;8.260;2023-07-31T05:02:36;25.20;49.90
59162;DHT22;44942;48.936;8.260;2023-07-31T05:07:36;25.20;49.90
59162;DHT22;44942;48.936;8.260;2023-07-31T05:12:37;25.20;50.00
59162;DHT22;44942;48.936;8.260;2023-07-31T05:17:37;25.20;50.00
59162;DHT22;44942;48.936;8.260;2023-07-31T05:22:38;25.20;50.00
59162;DHT22;44942;48.936;8.260;2023-07-31T05:27:38;25.10;50.00
59162;DHT22;44942;48.936;8.260;2023-07-31T05:32:39;25.20;50.00
59162;DHT22;44942;48.936;8.260;2023-07-31T05:37:39;25.20;50.00
59162;DHT22;44942;48.936;8.260;2023-07-31T05:42:39;25.20;50.00
59162;DHT22;44942;48.936;8.260;2023-07-31T05:47:40;25.20;50.10
59162;DHT22;44942;48.936;8.260;2023-07-31T05:52:41;25.20;50.00
59162;DHT22;44942;48.936;8.260;2023-07-31T05:57:41;25.20;50.00
59162;DHT22;44942;48.936;8.260;2023-07-31T06:02:41;25.20;50.00
59162;DHT22;44942;48.936;8.260;2023-07-31T06:07:42;25.10;49.90
59162;DHT22;44942;48.936;8.260;2023-07-31T06:12:43;25.10;50.00
59162;DHT22;44942;48.936;8.260;2023-07-31T06:17:43;25.10;49.90
59162;DHT22;44942;48.936;8.260;2023-07-31T06:33:32;25.10;50.10
59162;DHT22;44942;48.936;8.260;2023-07-31T06:38:32;25.10;50.10
59162;DHT22;44942;48.936;8.260;2023-07-31T06:43:33;25.10;50.10
59162;DHT22;44942;48.936;8.260;2023-07-31T06:48:33;25.10;50.10
59162;DHT22;44942;48.936;8.260;2023-07-31T06:53:34;25.20;50.20
59162;DHT22;44942;48.936;8.260;2023-07-31T06:58:34;25.10;50.10
59162;DHT22;44942;48.936;8.260;2023-07-31T07:03:35;25.10;50.20
59162;DHT22;44942;48.936;8.260;2023-07-31T07:08:35;25.10;50.20
59162;DHT22;44942;48.936;8.260;2023-07-31T07:13:36;25.10;50.10
59162;DHT22;44942;48.936;8.260;2023-07-31T07:18:36;25.10;50.20
59162;DHT22;44942;48.936;8.260;2023-07-31T07:23:37;25.10;50.10
59162;DHT22;44942;48.936;8.260;2023-07-31T07:28:37;25.10;50.10
59162;DHT22;44942;48.936;8.260;2023-07-31T07:33:38;25.10;50.20
59162;DHT22;44942;48.936;8.260;2023-07-31T07:38:38;25.10;50.10
59162;DHT22;44942;48.936;8.260;2023-07-31T07:43:39;25.10;50.10
59162;DHT22;44942;48.936;8.260;2023-07-31T07:48:40;25.10;50.10
59162;DHT22;44942;48.936;8.260;2023-07-31T07:53:40;25.10;50.20
59162;DHT22;44942;48.936;8.260;2023-07-31T07:58:41;25.10;50.20
59162;DHT22;44942;48.936;8.260;2023-07-31T08:03:41;25.10;50.10
59162;DHT22;44942;48.936;8.260;2023-07-31T08:08:42;25.10;50.20
59162;DHT22;44942;48.936;8.260;2023-07-31T08:13:42;25.10;50.10
59162;DHT22;44942;48.936;8.260;2023-07-31T08:18:42;25.10;50.10
59162;DHT22;44942;48.936;8.260;2023-07-31T08:23:43;25.10;50.10
59162;DHT22;44942;48.936;8.260;2023-07-31T08:28:43;25.20;50.10
59162;DHT22;44942;48.936;8.260;2023-07-31T08:33:44;25.10;50.00
59162;DHT22;44942;48.936;8.260;2023-07-31T08:38:45;25.20;50.10
59162;DHT22;44942;48.936;8.260;2023-07-31T08:43:46;25.10;50.00
59162;DHT22;44942;48.936;8.260;2023-07-31T08:48:46;25.10;50.00
59162;DHT22;44942;48.936;8.260;2023-07-31T08:53:48;25.20;50.20
59162;DHT22;44942;48.936;8.260;2023-07-31T08:58:48;25.20;50.20
59162;DHT22;44942;48.936;8.260;2023-07-31T09:03:49;25.20;50.30
59162;DHT22;44942;48.936;8.260;2023-07-31T09:08:51;25.20;50.20
59162;DHT22;44942;48.936;8.260;2023-07-31T09:13:52;25.20;50.20
59162;DHT22;44942;48.936;8.260;2023-07-31T09:18:54;25.20;50.20
59162;DHT22;44942;48.936;8.260;2023-07-31T09:23:56;25.20;50.30
59162;DHT22;44942;48.936;8.260;2023-07-31T09:28:57;25.20;50.30
59162;DHT22;44942;48.936;8.260;2023-07-31T09:33:58;25.20;50.30
59162;DHT22;44942;48.936;8.260;2023-07-31T09:39:04;25.20;50.20
59162;DHT22;44942;48.936;8.260;2023-07-31T09:44:05;25.30;50.30
59162;DHT22;44942;48.936;8.260;2023-07-31T09:49:09;25.20;50.20
59162;DHT22;44942;48.936;8.260;2023-07-31T09:59:14;25.20;50.20
59162;DHT22;44942;48.936;8.260;2023-07-31T10:04:15;25.20;50.20
59162;DHT22;44942;48.936;8.260;2023-07-31T10:09:17;25.30;50.20
59162;DHT22;44942;48.936;8.260;2023-07-31T10:14:19;25.30;50.20
59162;DHT22;44942;48.936;8.260;2023-07-31T10:19:20;25.20;50.20
59162;DHT22;44942;48.936;8.260;2023-07-31T10:24:20;25.30;50.20
59162;DHT22;44942;48.936;8.260;2023-07-31T10:29:21;25.30;50.20
59162;DHT22;44942;48.936;8.260;2023-07-31T10:34:22;25.30;50.20
59162;DHT22;44942;48.936;8.260;2023-07-31T10:39:35;25.30;50.20
59162;DHT22;44942;48.936;8.260;2023-07-31T10:44:37;25.30;50.20
59162;DHT22;44942;48.936;8.260;2023-07-31T10:49:37;25.30;50.30
59162;DHT22;44942;48.936;8.260;2023-07-31T10:54:39;25.30;50.30
59162;DHT22;44942;48.936;8.260;2023-07-31T10:59:39;25.30;50.20
59162;DHT22;44942;48.936;8.260;2023-07-31T11:04:40;25.30;50.20
59162;DHT22;44942;48.936;8.260;2023-07-31T11:09:41;25.30;50.20
59162;DHT22;44942;48.936;8.260;2023-07-31T11:14:42;25.30;50.20
59162;DHT22;44942;48.936;8.260;2023-07-31T11:19:42;25.30;50.30
59162;DHT22;44942;48.936;8.260;2023-07-31T11:24:43;25.30;50.30
59162;DHT22;44942;48.936;8.260;2023-07-31T11:29:43;25.30;50.20
59162;DHT22;44942;48.936;8.260;2023-07-31T11:34:53;25.40;50.30
59162;DHT22;44942;48.936;8.260;2023-07-31T11:40:00;25.30;50.20
59162;DHT22;44942;48.936;8.260;2023-07-31T11:45:04;25.40;50.30
59162;DHT22;44942;48.936;8.260;2023-07-31T11:50:06;25.40;50.40
59162;DHT22;44942;48.936;8.260;2023-07-31T11:55:10;25.40;50.50
59162;DHT22;44942;48.936;8.260;2023-07-31T12:00:11;25.40;50.50
59162;DHT22;44942;48.936;8.260;2023-07-31T12:05:13;25.40;50.60
59162;DHT22;44942;48.936;8.260;2023-07-31T12:10:23;25.40;50.60
59162;DHT22;44942;48.936;8.260;2023-07-31T12:20:33;25.50;50.70
59162;DHT22;44942;48.936;8.260;2023-07-31T12:25:34;25.50;50.70
59162;DHT22;44942;48.936;8.260;2023-07-31T12:30:36;25.50;50.70
59162;DHT22;44942;48.936;8.260;2023-07-31T12:35:37;25.50;50.70
59162;DHT22;44942;48.936;8.260;2023-07-31T12:40:38;25.50;50.70
59162;DHT22;44942;48.936;8.260;2023-07-31T12:45:39;25.50;50.60
59162;DHT22;44942;48.936;8.260;2023-07-31T12:50:39;25.50;50.70
59162;DHT22;44942;48.936;8.260;2023-07-31T12:55:40;25.50;50.70
59162;DHT22;44942;48.936;8.260;2023-07-31T13:00:40;25.60;50.70
59162;DHT22;44942;48.936;8.260;2023-07-31T13:05:41;25.60;50.60
59162;DHT22;44942;48.936;8.260;2023-07-31T13:10:42;25.60;50.60
59162;DHT22;44942;48.936;8.260;2023-07-31T13:15:43;25.60;50.70
59162;DHT22;44942;48.936;8.260;2023-07-31T13:20:43;25.60;50.70
59162;DHT22;44942;48.936;8.260;2023-07-31T13:25:44;25.60;50.80
59162;DHT22;44942;48.936;8.260;2023-07-31T13:30:44;25.60;50.80
59162;DHT22;44942;48.936;8.260;2023-07-31T13:35:46;25.60;50.80
59162;DHT22;44942;48.936;8.260;2023-07-31T13:40:46;25.60;50.80
59162;DHT22;44942;48.936;8.260;2023-07-31T13:45:47;25.60;50.80
59162;DHT22;44942;48.936;8.260;2023-07-31T13:50:47;25.60;50.80
59162;DHT22;44942;48.936;8.260;2023-07-31T13:55:48;25.70;50.80
59162;DHT22;44942;48.936;8.260;2023-07-31T14:00:49;25.70;50.80
59162;DHT22;44942;48.936;8.260;2023-07-31T14:05:51;25.70;50.90
59162;DHT22;44942;48.936;8.260;2023-07-31T14:10:52;25.70;50.90
59162;DHT22;44942;48.936;8.260;2023-07-31T14:15:52;25.70;50.90
59162;DHT22;44942;48.936;8.260;2023-07-31T14:20:53;25.70;51.00
59162;DHT22;44942;48.936;8.260;2023-07-31T14:25:53;25.70;51.00
59162;DHT22;44942;48.936;8.260;2023-07-31T14:30:54;25.70;51.00
59162;DHT22;44942;48.936;8.260;2023-07-31T14:35:54;25.70;51.00
59162;DHT22;44942;48.936;8.260;2023-07-31T14:40:55;25.70;51.00
59162;DHT22;44942;48.936;8.260;2023-07-31T14:45:56;25.70;51.10
59162;DHT22;44942;48.936;8.260;2023-07-31T14:50:59;25.70;51.10
59162;DHT22;44942;48.936;8.260;2023-07-31T14:56:00;25.70;51.00
59162;DHT22;44942;48.936;8.260;2023-07-31T15:01:00;25.80;51.10
59162;DHT22;44942;48.936;8.260;2023-07-31T15:06:01;25.80;51.20
59162;DHT22;44942;48.936;8.260;2023-07-31T15:11:01;25.80;51.20
59162;DHT22;44942;48.936;8.260;2023-07-31T15:16:02;25.80;51.20
59162;DHT22;44942;48.936;8.260;2023-07-31T15:21:02;25.80;51.20
59162;DHT22;44942;48.936;8.260;2023-07-31T15:26:04;25.80;51.30
59162;DHT22;44942;48.936;8.260;2023-07-31T15:31:05;25.80;51.30
59162;DHT22;44942;48.936;8.260;2023-07-31T15:36:05;25.80;51.30
59162;DHT22;44942;48.936;8.260;2023-07-31T15:41:06;25.80;51.30
59162;DHT22;44942;48.936;8.260;2023-07-31T15:46:06;25.80;51.30
59162;DHT22;44942;48.936;8.260;2023-07-31T15:51:07;25.80;51.40
59162;DHT22;44942;48.936;8.260;2023-07-31T15:56:07;25.80;51.40
59162;DHT22;44942;48.936;8.260;2023-07-31T16:01:08;25.80;51.30
59162;DHT22;44942;48.936;8.260;2023-07-31T16:06:08;25.90;51.40
59162;DHT22;44942;48.936;8.260;2023-07-31T16:11:09;25.90;51.50
59162;DHT22;44942;48.936;8.260;2023-07-31T16:16:09;25.90;51.50
59162;DHT22;44942;48.936;8.260;2023-07-31T16:21:10;25.90;51.60
59162;DHT22;44942;48.936;8.260;2023-07-31T16:26:10;25.90;51.60
59162;DHT22;44942;48.936;8.260;2023-07-31T16:31:11;25.90;51.80
59162;DHT22;44942;48.936;8.260;2023-07-31T16:36:11;25.90;51.80
59162;DHT22;44942;48.936;8.260;2023-07-31T16:41:12;25.90;51.80
59162;DHT22;44942;48.936;8.260;2023-07-31T16:46:12;25.90;51.90
59162;DHT22;44942;48.936;8.260;2023-07-31T16:51:13;25.90;52.00
59162;DHT22;44942;48.936;8.260;2023-07-31T16:56:14;26.00;52.10
59162;DHT22;44942;48.936;8.260;2023-07-31T17:01:15;25.90;52.10
59162;DHT22;44942;48.936;8.260;2023-07-31T17:06:15;25.90;52.20
59162;DHT22;44942;48.936;8.260;2023-07-31T17:11:16;26.00;52.30
59162;DHT22;44942;48.936;8.260;2023-07-31T17:16:17;25.90;52.30
59162;DHT22;44942;48.936;8.260;2023-07-31T17:21:17;26.00;52.30
59162;DHT22;44942;48.936;8.260;2023-07-31T17:26:18;26.00;52.40
59162;DHT22;44942;48.936;8.260;2023-07-31T17:31:18;26.00;52.50
59162;DHT22;44942;48.936;8.260;2023-07-31T17:36:19;26.00;53.30
59162;DHT22;44942;48.936;8.260;2023-07-31T17:41:19;26.00;52.60
59162;DHT22;44942;48.936;8.260;2023-07-31T17:46:21;26.00;52.50
59162;DHT22;44942;48.936;8.260;2023-07-31T17:51:22;26.00;52.60
59162;DHT22;44942;48.936;8.260;2023-07-31T17:56:22;26.00;52.60
59162;DHT22;44942;48.936;8.260;2023-07-31T18:01:23;26.00;52.60
59162;DHT22;44942;48.936;8.260;2023-07-31T18:06:23;26.10;52.80
59162;DHT22;44942;48.936;8.260;2023-07-31T18:11:24;26.10;52.90
59162;DHT22;44942;48.936;8.260;2023-07-31T18:16:26;26.10;52.80
59162;DHT22;44942;48.936;8.260;2023-07-31T18:21:27;26.10;52.90
59162;DHT22;44942;48.936;8.260;2023-07-31T18:26:28;26.10;52.90
59162;DHT22;44942;48.936;8.260;2023-07-31T18:31:28;26.10;52.80
59162;DHT22;44942;48.936;8.260;2023-07-31T18:36:29;26.10;52.90
59162;DHT22;44942;48.936;8.260;2023-07-31T18:41:29;26.10;53.00
59162;DHT22;44942;48.936;8.260;2023-07-31T18:46:30;26.10;53.10
59162;DHT22;44942;48.936;8.260;2023-07-31T18:51:30;26.10;53.10
59162;DHT22;44942;48.936;8.260;2023-07-31T18:56:35;26.10;53.10
59162;DHT22;44942;48.936;8.260;2023-07-31T19:01:36;26.10;53.20
59162;DHT22;44942;48.936;8.260;2023-07-31T19:06:37;26.10;53.30
59162;DHT22;44942;48.936;8.260;2023-07-31T19:11:39;26.10;53.20
59162;DHT22;44942;48.936;8.260;2023-07-31T19:16:39;26.10;53.40
59162;DHT22;44942;48.936;8.260;2023-07-31T19:21:42;26.10;53.40
59162;DHT22;44942;48.936;8.260;2023-07-31T19:26:42;26.10;53.40
59162;DHT22;44942;48.936;8.260;2023-07-31T19:31:43;26.10;53.50
59162;DHT22;44942;48.936;8.260;2023-07-31T19:36:44;26.10;53.50
59162;DHT22;44942;48.936;8.260;2023-07-31T19:41:48;26.10;53.60
59162;DHT22;44942;48.936;8.260;2023-07-31T19:46:48;26.20;53.70
59162;DHT22;44942;48.936;8.260;2023-07-31T19:51:49;26.10;53.60
59162;DHT22;44942;48.936;8.260;2023-07-31T19:56:49;26.10;53.60
59162;DHT22;44942;48.936;8.260;2023-07-31T20:01:50;26.20;53.70
59162;DHT22;44942;48.936;8.260;2023-07-31T20:06:51;26.20;53.70
59162;DHT22;44942;48.936;8.260;2023-07-31T20:11:52;26.20;53.60
59162;DHT22;44942;48.936;8.260;2023-07-31T20:16:52;26.20;53.70
59162;DHT22;44942;48.936;8.260;2023-07-31T20:21:53;26.20;53.80
59162;DHT22;44942;48.936;8.260;2023-07-31T20:26:55;26.20;53.80
59162;DHT22;44942;48.936;8.260;2023-07-31T20:31:56;26.20;53.90
59162;DHT22;44942;48.936;8.260;2023-07-31T20:36:56;26.10;53.90
59162;DHT22;44942;48.936;8.260;2023-07-31T20:41:57;26.10;53.90
59162;DHT22;44942;48.936;8.260;2023-07-31T20:46:57;26.10;53.90
59162;DHT22;44942;48.936;8.260;2023-07-31T20:51:58;26.10;54.00
59162;DHT22;44942;48.936;8.260;2023-07-31T20:56:58;26.10;54.00
59162;DHT22;44942;48.936;8.260;2023-07-31T21:01:59;26.10;54.00
59162;DHT22;44942;48.936;8.260;2023-07-31T21:07:00;26.10;54.00
59162;DHT22;44942;48.936;8.260;2023-07-31T21:12:00;26.10;54.10
59162;DHT22;44942;48.936;8.260;2023-07-31T21:17:01;26.10;54.10
59162;DHT22;44942;48.936;8.260;2023-07-31T21:22:01;26.10;54.10
59162;DHT22;44942;48.936;8.260;2023-07-31T21:27:02;26.10;54.20
59162;DHT22;44942;48.936;8.260;2023-07-31T21:32:02;26.10;54.20
59162;DHT22;44942;48.936;8.260;2023-07-31T21:37:03;26.10;54.20
59162;DHT22;44942;48.936;8.260;2023-07-31T21:42:04;26.10;54.20
59162;DHT22;44942;48.936;8.260;2023-07-31T21:47:05;26.10;54.90
59162;DHT22;44942;48.936;8.260;2023-07-31T21:52:06;26.10;54.30
59162;DHT22;44942;48.936;8.260;2023-07-31T21:57:06;26.10;54.40
59162;DHT22;44942;48.936;8.260;2023-07-31T22:02:07;26.10;54.30
59162;DHT22;44942;48.936;8.260;2023-07-31T22:07:08;26.10;54.30
59162;DHT22;44942;48.936;8.260;2023-07-31T22:12:09;26.10;54.40
59162;DHT22;44942;48.936;8.260;2023-07-31T22:17:09;26.10;54.40
59162;DHT22;44942;48.936;8.260;2023-07-31T22:22:10;26.10;54.50
59162;DHT22;44942;48.936;8.260;2023-07-31T22:27:10;26.10;54.60
59162;DHT22;44942;48.936;8.260;2023-07-31T22:32:11;26.10;54.50
59162;DHT22;44942;48.936;8.260;2023-07-31T22:37:11;26.10;54.60
59162;DHT22;44942;48.936;8.260;2023-07-31T22:42:12;26.10;54.70
59162;DHT22;44942;48.936;8.260;2023-07-31T22:47:12;26.10;54.80
59162;DHT22;44942;48.936;8.260;2023-07-31T22:52:13;26.10;54.80
59162;DHT22;44942;48.936;8.260;2023-07-31T22:57:13;26.10;54.90
59162;DHT22;44942;48.936;8.260;2023-07-31T23:02:13;26.10;54.90
59162;DHT22;44942;48.936;8.260;2023-07-31T23:07:14;26.10;55.00
59162;DHT22;44942;48.936;8.260;2023-07-31T23:12:14;26.10;55.00
59162;DHT22;44942;48.936;8.260;2023-07-31T23:17:15;26.10;55.10
59162;DHT22;44942;48.936;8.260;2023-07-31T23:22:15;26.10;55.10
59162;DHT22;44942;48.936;8.260;2023-07-31T23:27:16;26.10;55.10
59162;DHT22;44942;48.936;8.260;2023-07-31T23:32:16;26.10;55.10
59162;DHT22;44942;48.936;8.260;2023-07-31T23:37:17;26.10;55.10
59162;DHT22;44942;48.936;8.260;2023-07-31T23:42:18;26.10;55.00
59162;DHT22;44942;48.936;8.260;2023-07-31T23:47:18;26.10;55.00
59162;DHT22;44942;48.936;8.260;2023-07-31T23:52:19;26.10;55.10
59162;DHT22;44942;48.936;8.260;2023-07-31T23:57:19;26.10;55.20
